createdAt,value
2019-05-29T00:00:28.918Z,83.30
2019-05-29T00:01:28.876Z,83.40
2019-05-29T00:02:28.849Z,83.81
2019-05-29T00:03:28.856Z,84.22
2019-05-29T00:04:28.829Z,83.61
2019-05-29T00:05:28.809Z,83.20
2019-05-29T00:06:40.896Z,83.20
2019-05-29T00:07:28.803Z,82.39
2019-05-29T00:08:28.787Z,83.30
2019-05-29T00:09:28.769Z,83.61
2019-05-29T00:10:28.766Z,83.71
2019-05-29T00:11:28.794Z,83.92
2019-05-29T00:12:28.733Z,83.51
2019-05-29T00:13:28.729Z,83.30
2019-05-29T00:14:28.721Z,83.51
2019-05-29T00:15:28.723Z,83.30
2019-05-29T00:16:28.704Z,83.61
2019-05-29T00:17:28.707Z,83.81
2019-05-29T00:18:28.691Z,84.01
2019-05-29T00:19:28.683Z,83.40
2019-05-29T00:20:28.656Z,83.61
2019-05-29T00:21:28.649Z,83.92
2019-05-29T00:22:28.685Z,83.51
2019-05-29T00:23:28.616Z,83.61
2019-05-29T00:24:28.612Z,83.51
2019-05-29T00:25:28.607Z,83.30
2019-05-29T00:26:28.609Z,83.71
2019-05-29T00:27:28.580Z,83.71
2019-05-29T00:28:28.575Z,83.71
2019-05-29T00:29:28.574Z,83.44
2019-05-29T00:30:28.568Z,84.12
2019-05-29T00:31:28.532Z,84.01
2019-05-29T00:32:28.533Z,83.61
2019-05-29T00:33:28.522Z,84.12
2019-05-29T00:34:28.505Z,83.61
2019-05-29T00:35:28.490Z,83.71
2019-05-29T00:36:28.484Z,83.92
2019-05-29T00:37:38.992Z,84.12
2019-05-29T00:39:37.640Z,84.01
2019-05-29T00:40:37.608Z,84.01
2019-05-29T00:41:37.611Z,84.83
2019-05-29T00:43:37.676Z,84.47
2019-05-29T00:45:37.560Z,84.98
2019-05-29T00:46:37.540Z,85.38
2019-05-29T00:49:37.528Z,84.67
2019-05-29T01:09:44.801Z,89.82
2019-05-29T01:10:37.289Z,89.82
2019-05-29T01:20:37.171Z,93.24
2019-05-29T01:41:36.956Z,94.26
2019-05-29T01:45:43.900Z,93.89
2019-05-29T01:47:44.004Z,94.40
2019-05-29T01:48:43.853Z,94.51
2019-05-29T01:49:36.929Z,94.60
2019-05-29T01:50:36.843Z,94.46
2019-05-29T01:51:36.833Z,94.40
2019-05-29T01:52:36.830Z,94.40
2019-05-29T01:53:36.829Z,94.46
2019-05-29T01:54:36.804Z,94.36
2019-05-29T01:55:36.787Z,93.89
2019-05-29T01:56:36.800Z,94.51
2019-05-29T01:57:36.771Z,94.15
2019-05-29T01:58:36.761Z,94.15
2019-05-29T01:59:36.743Z,94.67
2019-05-29T02:00:36.750Z,94.56
2019-05-29T02:01:36.724Z,94.06
2019-05-29T02:02:36.713Z,94.36
2019-05-29T02:03:36.716Z,94.46
2019-05-29T02:04:36.701Z,95.07
2019-05-29T02:05:36.682Z,94.97
2019-05-29T02:06:36.680Z,95.07
2019-05-29T02:07:36.679Z,94.87
2019-05-29T02:08:36.675Z,94.87
2019-05-29T02:09:36.637Z,95.18
2019-05-29T02:10:36.640Z,94.87
2019-05-29T02:11:36.629Z,95.18
2019-05-29T02:12:36.602Z,95.07
2019-05-29T02:13:36.596Z,95.07
2019-05-29T02:14:36.598Z,95.18
2019-05-29T02:15:36.576Z,95.28
2019-05-29T02:16:36.559Z,95.28
2019-05-29T02:17:36.560Z,94.97
2019-05-29T02:18:36.622Z,95.07
2019-05-29T02:20:36.515Z,94.87
2019-05-29T02:21:36.506Z,95.38
2019-05-29T02:22:36.494Z,95.69
2019-05-29T02:23:36.483Z,95.28
2019-05-29T02:24:36.524Z,94.77
2019-05-29T02:25:36.486Z,95.13
2019-05-29T02:26:36.453Z,94.73
2019-05-29T02:27:36.447Z,94.93
2019-05-29T02:28:36.425Z,94.82
2019-05-29T02:29:36.414Z,94.73
2019-05-29T02:30:36.442Z,95.34
2019-05-29T02:31:36.409Z,95.13
2019-05-29T02:32:36.385Z,95.34
2019-05-29T02:33:36.380Z,96.05
2019-05-29T02:34:36.364Z,94.82
2019-05-29T02:35:36.363Z,94.82
2019-05-29T02:36:36.339Z,95.95
2019-05-29T02:37:36.331Z,95.85
2019-05-29T02:38:36.339Z,95.54
2019-05-29T02:39:36.314Z,95.23
2019-05-29T02:40:36.312Z,96.05
2019-05-29T02:41:36.323Z,95.64
2019-05-29T02:42:36.284Z,95.85
2019-05-29T02:43:36.278Z,95.64
2019-05-29T02:44:36.257Z,96.01
2019-05-29T02:45:52.898Z,96.05
2019-05-29T02:46:37.234Z,96.26
2019-05-29T02:47:36.222Z,95.95
2019-05-29T02:48:36.210Z,96.11
2019-05-29T02:49:36.207Z,95.64
2019-05-29T02:50:48.612Z,96.31
2019-05-29T02:51:36.202Z,96.36
2019-05-29T02:52:36.219Z,96.31
2019-05-29T02:53:36.158Z,95.60
2019-05-29T02:54:36.140Z,96.01
2019-05-29T02:55:36.183Z,96.01
2019-05-29T02:56:36.156Z,96.51
2019-05-29T02:57:36.118Z,96.11
2019-05-29T02:58:36.115Z,96.21
2019-05-29T02:59:36.109Z,96.31
2019-05-29T03:00:36.096Z,96.42
2019-05-29T03:01:36.135Z,96.21
2019-05-29T03:02:36.055Z,96.62
2019-05-29T03:03:39.738Z,96.31
2019-05-29T03:04:36.055Z,96.17
2019-05-29T03:05:36.032Z,97.44
2019-05-29T03:06:36.029Z,96.42
2019-05-29T03:07:36.059Z,96.42
2019-05-29T03:08:36.019Z,96.42
2019-05-29T03:09:35.990Z,96.92
2019-05-29T03:10:35.970Z,96.51
2019-05-29T03:11:35.962Z,96.68
2019-05-29T03:12:35.964Z,96.06
2019-05-29T03:13:35.939Z,96.62
2019-05-29T03:14:35.953Z,96.37
2019-05-29T03:15:35.918Z,96.47
2019-05-29T03:16:35.898Z,96.78
2019-05-29T03:17:35.918Z,96.37
2019-05-29T03:18:36.565Z,96.37
2019-05-29T03:19:35.880Z,96.58
2019-05-29T03:20:35.875Z,96.98
2019-05-29T03:22:44.113Z,96.58
2019-05-29T03:23:36.511Z,96.22
2019-05-29T03:24:35.822Z,96.88
2019-05-29T03:25:37.049Z,96.37
2019-05-29T03:26:35.798Z,96.33
2019-05-29T03:27:35.782Z,96.53
2019-05-29T03:28:35.822Z,96.73
2019-05-29T03:29:35.757Z,96.58
2019-05-29T03:30:42.198Z,96.33
2019-05-29T03:31:43.364Z,96.84
2019-05-29T03:32:43.466Z,96.84
2019-05-29T03:33:44.808Z,96.84
2019-05-29T03:34:42.359Z,96.73
2019-05-29T03:35:43.965Z,96.53
2019-05-29T03:36:46.055Z,96.73
2019-05-29T03:37:38.499Z,97.04
2019-05-29T03:38:35.662Z,97.04
2019-05-29T03:39:35.667Z,96.73
2019-05-29T03:40:35.637Z,97.04
2019-05-29T03:41:35.647Z,96.48
2019-05-29T03:42:35.628Z,97.14
2019-05-29T03:43:36.265Z,96.59
2019-05-29T03:44:35.662Z,96.79
2019-05-29T03:45:36.295Z,96.79
2019-05-29T03:46:43.023Z,96.69
2019-05-29T03:47:37.172Z,96.79
2019-05-29T03:48:35.552Z,96.79
2019-05-29T03:49:37.221Z,97.09
2019-05-29T03:50:35.539Z,97.20
2019-05-29T03:51:37.212Z,97.09
2019-05-29T03:53:36.692Z,96.95
2019-05-29T03:54:35.610Z,96.44
2019-05-29T03:55:35.932Z,97.05
2019-05-29T03:56:35.472Z,97.05
2019-05-29T03:57:35.891Z,96.44
2019-05-29T03:58:37.506Z,96.54
2019-05-29T03:59:37.353Z,97.00
2019-05-29T04:00:41.703Z,97.21
2019-05-29T04:01:37.438Z,96.75
2019-05-29T04:02:36.141Z,96.70
2019-05-29T04:03:36.107Z,96.91
2019-05-29T04:04:36.180Z,97.00
2019-05-29T04:05:35.702Z,97.11
2019-05-29T04:06:35.777Z,96.80
2019-05-29T04:07:35.702Z,97.25
2019-05-29T04:08:35.812Z,96.54
2019-05-29T04:09:35.530Z,97.00
2019-05-29T04:10:37.364Z,96.60
2019-05-29T04:11:35.638Z,97.00
2019-05-29T04:12:35.545Z,97.00
2019-05-29T04:13:36.260Z,97.16
2019-05-29T04:14:35.745Z,96.70
2019-05-29T04:15:36.551Z,96.70
2019-05-29T04:16:52.766Z,96.96
2019-05-29T04:17:37.837Z,96.91
2019-05-29T04:18:35.950Z,96.91
2019-05-29T04:19:36.867Z,96.70
2019-05-29T04:21:36.345Z,96.55
2019-05-29T04:23:45.659Z,96.86
2019-05-29T04:24:35.979Z,97.27
2019-05-29T04:25:38.279Z,96.76
2019-05-29T04:26:36.283Z,97.78
2019-05-29T04:27:35.977Z,97.57
2019-05-29T04:28:36.766Z,97.27
2019-05-29T04:29:36.116Z,97.16
2019-05-29T04:30:36.511Z,96.92
2019-05-29T04:31:36.574Z,96.92
2019-05-29T04:32:36.636Z,96.81
2019-05-29T04:33:36.662Z,96.86
2019-05-29T04:34:35.866Z,97.27
2019-05-29T04:35:36.626Z,96.81
2019-05-29T04:36:36.700Z,96.92
2019-05-29T04:37:36.834Z,96.61
2019-05-29T04:38:36.149Z,96.96
2019-05-29T04:39:36.835Z,96.76
2019-05-29T04:40:37.097Z,96.92
2019-05-29T04:41:36.869Z,97.53
2019-05-29T04:42:35.793Z,97.67
2019-05-29T04:43:35.662Z,97.32
2019-05-29T04:44:36.264Z,97.32
2019-05-29T04:45:35.991Z,97.37
2019-05-29T04:46:36.337Z,97.27
2019-05-29T04:47:35.217Z,97.57
2019-05-29T04:48:36.228Z,97.73
2019-05-29T04:49:36.166Z,97.47
2019-05-29T04:50:36.420Z,97.27
2019-05-29T04:51:35.442Z,97.37
2019-05-29T04:52:35.917Z,97.32
2019-05-29T04:53:35.550Z,97.47
2019-05-29T04:55:34.901Z,97.22
2019-05-29T04:56:34.922Z,97.42
2019-05-29T04:57:35.004Z,97.42
2019-05-29T04:58:34.894Z,97.53
2019-05-29T04:59:35.037Z,97.53
2019-05-29T05:00:35.230Z,97.63
2019-05-29T05:01:35.066Z,97.53
2019-05-29T05:02:35.071Z,97.38
2019-05-29T05:03:35.179Z,97.28
2019-05-29T05:04:35.163Z,97.28
2019-05-29T05:05:35.333Z,97.48
2019-05-29T05:06:35.315Z,97.38
2019-05-29T05:07:35.379Z,97.44
2019-05-29T05:08:41.971Z,96.87
2019-05-29T05:09:35.419Z,96.87
2019-05-29T05:11:05.499Z,96.42
2019-05-29T05:11:51.549Z,96.62
2019-05-29T05:12:44.337Z,96.46
2019-05-29T05:13:35.572Z,96.31
2019-05-29T05:15:25.416Z,96.83
2019-05-29T05:16:25.409Z,96.72
2019-05-29T05:17:26.598Z,96.83
2019-05-29T05:18:25.381Z,96.52
2019-05-29T05:19:25.387Z,96.92
2019-05-29T05:20:25.384Z,96.72
2019-05-29T05:21:25.348Z,96.68
2019-05-29T05:22:25.335Z,96.78
2019-05-29T05:23:25.328Z,96.58
2019-05-29T05:24:25.331Z,96.47
2019-05-29T05:25:25.321Z,96.37
2019-05-29T05:26:25.302Z,96.58
2019-05-29T05:27:25.310Z,96.47
2019-05-29T05:28:25.279Z,96.17
2019-05-29T05:29:25.263Z,96.47
2019-05-29T05:30:25.254Z,96.07
2019-05-29T05:31:25.280Z,96.78
2019-05-29T05:32:25.242Z,95.97
2019-05-29T05:33:25.222Z,96.07
2019-05-29T05:34:25.223Z,95.76
2019-05-29T05:35:25.203Z,95.82
2019-05-29T05:36:25.182Z,96.33
2019-05-29T05:37:25.188Z,95.92
2019-05-29T05:38:25.283Z,96.12
2019-05-29T05:39:25.154Z,95.66
2019-05-29T05:40:25.143Z,95.72
2019-05-29T05:41:25.138Z,95.62
2019-05-29T05:42:25.139Z,96.12
2019-05-29T05:43:25.115Z,95.82
2019-05-29T05:44:25.156Z,95.92
2019-05-29T05:45:32.984Z,96.12
2019-05-29T05:46:25.086Z,96.33
2019-05-29T05:47:43.093Z,96.53
2019-05-29T05:48:26.053Z,95.92
2019-05-29T05:49:25.065Z,96.12
2019-05-29T05:50:25.038Z,96.43
2019-05-29T05:51:25.019Z,95.98
2019-05-29T05:52:25.027Z,95.87
2019-05-29T05:53:25.092Z,95.78
2019-05-29T05:54:25.001Z,95.72
2019-05-29T05:55:24.984Z,95.78
2019-05-29T05:56:24.969Z,95.78
2019-05-29T05:57:24.969Z,95.57
2019-05-29T05:58:24.954Z,95.87
2019-05-29T05:59:24.930Z,95.87
2019-05-29T06:00:24.929Z,95.78
2019-05-29T06:01:24.920Z,95.32
2019-05-29T06:02:25.168Z,95.37
2019-05-29T06:03:24.899Z,95.32
2019-05-29T06:04:24.922Z,95.42
2019-05-29T06:05:24.870Z,95.32
2019-05-29T06:06:24.860Z,95.79
2019-05-29T06:07:24.881Z,94.92
2019-05-29T06:08:24.833Z,95.22
2019-05-29T06:09:24.845Z,95.53
2019-05-29T06:10:24.811Z,94.21
2019-05-29T06:11:24.809Z,94.21
2019-05-29T06:12:24.813Z,94.10
2019-05-29T06:13:24.792Z,94.41
2019-05-29T06:14:24.784Z,94.67
2019-05-29T06:15:24.917Z,94.26
2019-05-29T06:16:37.194Z,94.37
2019-05-29T06:17:25.750Z,94.46
2019-05-29T06:18:24.777Z,94.37
2019-05-29T06:19:24.726Z,94.46
2019-05-29T06:20:24.716Z,93.35
2019-05-29T06:21:24.713Z,94.46
2019-05-29T06:22:24.703Z,94.26
2019-05-29T06:23:24.711Z,94.46
2019-05-29T06:24:24.723Z,94.06
2019-05-29T06:25:24.761Z,93.45
2019-05-29T06:26:24.636Z,94.57
2019-05-29T06:27:24.635Z,94.87
2019-05-29T06:28:24.643Z,94.46
2019-05-29T06:29:33.405Z,94.17
2019-05-29T06:30:24.598Z,94.17
2019-05-29T06:31:27.145Z,94.46
2019-05-29T06:32:24.571Z,94.46
2019-05-29T06:33:24.564Z,94.46
2019-05-29T06:34:24.566Z,94.26
2019-05-29T06:35:31.766Z,94.87
2019-05-29T06:36:25.513Z,95.38
2019-05-29T06:37:26.189Z,94.06
2019-05-29T06:38:24.511Z,94.17
2019-05-29T06:39:24.503Z,94.46
2019-05-29T06:40:24.484Z,94.46
2019-05-29T06:41:24.473Z,94.46
2019-05-29T06:42:25.731Z,93.96
2019-05-29T06:43:24.458Z,95.07
2019-05-29T06:44:31.956Z,95.38
2019-05-29T06:45:24.438Z,94.26
2019-05-29T06:46:24.422Z,94.37
2019-05-29T06:47:24.415Z,94.17
2019-05-29T06:48:40.421Z,94.26
2019-05-29T06:49:25.397Z,94.42
2019-05-29T06:50:24.395Z,94.42
2019-05-29T06:51:24.387Z,94.12
2019-05-29T06:52:24.365Z,94.12
2019-05-29T06:53:24.349Z,94.57
2019-05-29T06:54:24.328Z,94.57
2019-05-29T06:55:24.339Z,94.12
2019-05-29T06:56:24.340Z,94.02
2019-05-29T06:57:25.923Z,94.62
2019-05-29T06:58:24.290Z,95.43
2019-05-29T06:59:24.295Z,94.32
2019-05-29T07:00:34.983Z,94.87
2019-05-29T07:01:25.254Z,94.26
2019-05-29T07:02:24.260Z,95.13
2019-05-29T07:03:24.245Z,94.83
2019-05-29T07:04:24.238Z,95.23
2019-05-29T07:05:24.244Z,94.98
2019-05-29T07:06:24.213Z,95.68
2019-05-29T07:07:24.204Z,95.38
2019-05-29T07:08:38.145Z,95.18
2019-05-29T07:09:25.182Z,95.48
2019-05-29T07:10:24.160Z,94.98
2019-05-29T07:11:24.159Z,95.18
2019-05-29T07:12:24.129Z,95.28
2019-05-29T07:13:24.131Z,95.28
2019-05-29T07:14:24.117Z,94.93
2019-05-29T07:15:36.507Z,94.93
2019-05-29T07:16:42.872Z,95.34
2019-05-29T07:17:25.079Z,95.58
2019-05-29T07:18:24.076Z,95.28
2019-05-29T07:19:34.192Z,95.34
2019-05-29T07:20:25.065Z,95.74
2019-05-29T07:21:24.108Z,95.34
2019-05-29T07:22:24.022Z,94.83
2019-05-29T07:23:24.026Z,94.83
2019-05-29T07:24:24.005Z,94.93
2019-05-29T07:25:23.990Z,95.34
2019-05-29T07:26:24.054Z,95.09
2019-05-29T07:27:23.968Z,95.13
2019-05-29T07:28:23.962Z,95.09
2019-05-29T07:29:23.960Z,94.93
2019-05-29T07:30:23.962Z,94.93
2019-05-29T07:31:23.943Z,94.78
2019-05-29T07:32:23.949Z,95.19
2019-05-29T07:33:23.907Z,95.09
2019-05-29T07:34:23.890Z,94.27
2019-05-29T07:35:23.884Z,94.48
2019-05-29T07:36:23.870Z,95.50
2019-05-29T07:37:23.858Z,95.29
2019-05-29T07:38:23.861Z,95.19
2019-05-29T07:39:23.879Z,94.13
2019-05-29T07:40:23.831Z,93.97
2019-05-29T07:41:23.825Z,94.03
2019-05-29T07:42:23.804Z,93.73
2019-05-29T07:43:23.803Z,93.42
2019-05-29T07:44:23.863Z,93.32
2019-05-29T07:45:23.819Z,93.62
2019-05-29T07:46:35.918Z,93.52
2019-05-29T07:47:23.759Z,93.62
2019-05-29T07:48:23.877Z,93.22
2019-05-29T07:49:38.148Z,93.62
2019-05-29T07:50:24.736Z,94.03
2019-05-29T07:51:23.709Z,93.02
2019-05-29T07:52:23.714Z,93.73
2019-05-29T07:53:23.702Z,93.42
2019-05-29T07:54:23.685Z,93.12
2019-05-29T07:55:23.897Z,93.07
2019-05-29T07:56:23.674Z,93.48
2019-05-29T07:57:23.651Z,92.57
2019-05-29T07:58:23.658Z,91.61
2019-05-29T07:59:23.642Z,92.72
2019-05-29T08:00:34.738Z,92.32
2019-05-29T08:01:24.597Z,92.18
2019-05-29T08:02:23.593Z,91.57
2019-05-29T08:03:23.573Z,91.37
2019-05-29T08:04:23.591Z,91.37
2019-05-29T08:05:23.574Z,91.42
2019-05-29T08:06:23.545Z,91.12
2019-05-29T08:07:23.629Z,91.12
2019-05-29T08:08:23.517Z,90.78
2019-05-29T08:09:23.513Z,91.22
2019-05-29T08:10:23.529Z,90.62
2019-05-29T08:11:23.500Z,91.08
2019-05-29T08:12:23.503Z,90.37
2019-05-29T08:13:23.497Z,90.27
2019-05-29T08:14:23.468Z,89.36
2019-05-29T08:15:23.453Z,90.58
2019-05-29T08:16:23.434Z,89.87
2019-05-29T08:17:35.176Z,89.66
2019-05-29T08:18:23.430Z,89.46
2019-05-29T08:19:23.431Z,89.46
2019-05-29T08:20:23.408Z,89.66
2019-05-29T08:21:23.382Z,89.87
2019-05-29T08:22:33.748Z,89.87
2019-05-29T08:23:24.356Z,89.66
2019-05-29T08:24:24.820Z,89.87
2019-05-29T08:25:23.346Z,89.92
2019-05-29T08:26:23.332Z,89.42
2019-05-29T08:27:23.323Z,88.37
2019-05-29T08:28:23.301Z,87.52
2019-05-29T08:29:23.290Z,87.82
2019-05-29T08:30:23.287Z,87.72
2019-05-29T08:31:23.296Z,87.72
2019-05-29T08:32:23.255Z,87.82
2019-05-29T08:33:23.248Z,87.62
2019-05-29T08:34:23.239Z,86.87
2019-05-29T08:35:23.225Z,87.48
2019-05-29T08:36:23.269Z,86.63
2019-05-29T08:37:23.211Z,85.36
2019-05-29T08:38:23.205Z,86.77
2019-05-29T08:39:35.361Z,86.33
2019-05-29T08:40:24.192Z,85.98
2019-05-29T08:41:23.160Z,85.94
2019-05-29T08:42:23.965Z,85.03
2019-05-29T08:43:23.140Z,83.62
2019-05-29T08:44:23.124Z,84.13
2019-05-29T08:45:23.123Z,83.72
2019-05-29T08:46:23.116Z,84.47
2019-05-29T08:47:23.107Z,84.27
2019-05-29T08:48:35.224Z,84.77
2019-05-29T08:49:23.342Z,86.08
2019-05-29T08:50:23.062Z,84.88
2019-05-29T08:51:23.046Z,85.08
2019-05-29T08:52:23.084Z,85.78
2019-05-29T08:53:23.071Z,84.47
2019-05-29T08:54:24.215Z,86.18
2019-05-29T08:55:23.009Z,84.91
2019-05-29T08:56:23.001Z,85.76
2019-05-29T08:57:22.987Z,86.13
2019-05-29T08:58:22.982Z,85.62
2019-05-29T08:59:22.985Z,85.25
2019-05-29T09:00:22.994Z,85.66
2019-05-29T09:01:22.950Z,85.56
2019-05-29T09:02:22.935Z,85.80
2019-05-29T09:03:22.939Z,86.67
2019-05-29T09:04:22.927Z,85.96
2019-05-29T09:05:22.902Z,86.07
2019-05-29T09:06:22.898Z,86.16
2019-05-29T09:07:22.882Z,86.27
2019-05-29T09:08:22.941Z,86.41
2019-05-29T09:09:22.872Z,86.45
2019-05-29T09:10:22.848Z,86.85
2019-05-29T09:11:22.837Z,87.56
2019-05-29T09:12:22.822Z,87.40
2019-05-29T09:13:22.818Z,87.60
2019-05-29T09:14:22.820Z,86.90
2019-05-29T09:15:22.793Z,87.54
2019-05-29T09:16:22.912Z,87.74
2019-05-29T09:17:22.788Z,87.54
2019-05-29T09:18:25.557Z,87.64
2019-05-29T09:19:33.102Z,87.13
2019-05-29T09:20:37.205Z,87.79
2019-05-29T09:21:26.617Z,88.35
2019-05-29T09:22:23.032Z,88.15
2019-05-29T09:23:23.309Z,87.44
2019-05-29T09:24:23.084Z,87.74
2019-05-29T09:25:23.264Z,88.65
2019-05-29T09:26:25.498Z,87.74
2019-05-29T09:27:23.298Z,87.90
2019-05-29T09:28:23.843Z,86.99
2019-05-29T09:29:23.807Z,87.10
2019-05-29T09:30:23.626Z,86.59
2019-05-29T09:31:23.799Z,85.17
2019-05-29T09:32:47.657Z,85.17
2019-05-29T09:33:24.584Z,85.80
2019-05-29T09:34:22.838Z,85.10
2019-05-29T09:35:24.600Z,84.09
2019-05-29T09:36:22.810Z,84.75
2019-05-29T09:37:22.544Z,82.73
2019-05-29T09:38:23.062Z,84.05
2019-05-29T09:39:22.842Z,83.74
2019-05-29T09:40:23.079Z,84.85
2019-05-29T09:41:23.573Z,83.74
2019-05-29T09:42:23.717Z,83.88
2019-05-29T09:43:27.088Z,84.12
2019-05-29T09:44:33.882Z,84.53
2019-05-29T09:45:23.545Z,85.38
2019-05-29T09:46:23.707Z,85.38
2019-05-29T09:47:24.069Z,85.78
2019-05-29T09:48:26.504Z,86.83
2019-05-29T09:49:22.416Z,87.54
2019-05-29T09:50:48.954Z,87.84
2019-05-29T09:51:23.423Z,87.13
2019-05-29T09:52:22.423Z,87.54
2019-05-29T09:53:22.399Z,87.54
2019-05-29T09:54:22.439Z,87.88
2019-05-29T09:55:22.355Z,87.48
2019-05-29T09:56:22.402Z,88.35
2019-05-29T09:57:22.337Z,87.58
2019-05-29T09:58:22.325Z,87.95
2019-05-29T09:59:22.317Z,87.64
2019-05-29T10:00:22.302Z,87.28
2019-05-29T10:01:24.421Z,86.67
2019-05-29T10:02:22.336Z,87.79
2019-05-29T10:03:22.340Z,87.88
2019-05-29T10:04:22.252Z,88.09
2019-05-29T10:05:22.247Z,88.79
2019-05-29T10:06:22.230Z,87.28
2019-05-29T10:07:22.217Z,87.95
2019-05-29T10:08:22.222Z,87.54
2019-05-29T10:09:22.198Z,88.15
2019-05-29T10:10:22.187Z,87.50
2019-05-29T10:11:22.178Z,86.79
2019-05-29T10:12:22.179Z,85.22
2019-05-29T10:13:22.156Z,86.22
2019-05-29T10:14:22.143Z,85.78
2019-05-29T10:15:22.138Z,84.91
2019-05-29T10:16:22.118Z,83.86
2019-05-29T10:17:22.159Z,84.77
2019-05-29T10:18:32.175Z,84.33
2019-05-29T10:19:23.087Z,83.42
2019-05-29T10:20:22.093Z,83.38
2019-05-29T10:21:40.492Z,82.81
2019-05-29T10:22:23.103Z,84.06
2019-05-29T10:23:22.087Z,83.40
2019-05-29T10:24:22.166Z,83.56
2019-05-29T10:25:22.023Z,84.06
2019-05-29T10:26:22.011Z,84.51
2019-05-29T10:27:22.010Z,84.20
2019-05-29T10:28:21.998Z,84.71
2019-05-29T10:29:22.510Z,84.31
2019-05-29T10:30:21.969Z,85.28
2019-05-29T10:31:21.965Z,83.92
2019-05-29T10:32:21.943Z,83.88
2019-05-29T10:33:23.160Z,83.48
2019-05-29T10:34:22.070Z,81.82
2019-05-29T10:35:22.102Z,82.43
2019-05-29T10:36:22.101Z,80.51
2019-05-29T10:37:22.330Z,80.38
2019-05-29T10:38:22.021Z,80.62
2019-05-29T10:39:22.079Z,79.91
2019-05-29T10:40:21.953Z,81.28
2019-05-29T10:41:22.050Z,79.81
2019-05-29T10:42:21.903Z,80.82
2019-05-29T10:43:33.736Z,80.76
2019-05-29T10:44:23.012Z,82.87
2019-05-29T10:45:22.034Z,82.57
2019-05-29T10:46:21.948Z,82.31
2019-05-29T10:47:22.034Z,82.95
2019-05-29T10:48:21.877Z,82.65
2019-05-29T10:49:21.891Z,83.76
2019-05-29T10:50:21.979Z,82.61
2019-05-29T10:51:21.813Z,81.56
2019-05-29T10:52:33.950Z,82.13
2019-05-29T10:53:21.753Z,82.05
2019-05-29T10:54:21.978Z,80.74
2019-05-29T10:55:21.708Z,78.52
2019-05-29T10:56:21.821Z,78.83
2019-05-29T10:57:21.689Z,77.88
2019-05-29T10:58:21.665Z,76.17
2019-05-29T10:59:21.651Z,78.02
2019-05-29T11:00:21.651Z,77.21
2019-05-29T11:01:21.641Z,77.25
2019-05-29T11:02:21.626Z,78.90
2019-05-29T11:03:21.609Z,78.74
2019-05-29T11:04:21.595Z,80.45
2019-05-29T11:05:21.595Z,81.46
2019-05-29T11:06:21.607Z,79.21
2019-05-29T11:07:21.574Z,78.61
2019-05-29T11:08:21.563Z,78.81
2019-05-29T11:09:21.542Z,79.11
2019-05-29T11:10:21.543Z,78.81
2019-05-29T11:11:21.534Z,78.71
2019-05-29T11:12:21.522Z,77.36
2019-05-29T11:13:21.496Z,76.15
2019-05-29T11:14:21.488Z,78.57
2019-05-29T11:15:22.151Z,76.95
2019-05-29T11:16:21.478Z,77.86
2019-05-29T11:17:21.499Z,77.83
2019-05-29T11:18:21.443Z,76.86
2019-05-29T11:19:21.434Z,76.95
2019-05-29T11:20:21.425Z,76.75
2019-05-29T11:21:21.415Z,75.13
2019-05-29T11:22:26.198Z,75.20
2019-05-29T11:24:36.711Z,76.92
2019-05-29T11:25:36.444Z,75.00
2019-05-29T11:26:36.531Z,76.42
2019-05-29T11:27:36.274Z,76.25
2019-05-29T11:28:36.286Z,77.15
2019-05-29T11:29:36.256Z,77.15
2019-05-29T11:30:36.239Z,77.06
2019-05-29T11:31:36.226Z,77.90
2019-05-29T11:32:36.276Z,77.80
2019-05-29T11:33:36.212Z,77.09
2019-05-29T11:34:36.203Z,77.33
2019-05-29T11:35:36.181Z,76.18
2019-05-29T11:36:36.182Z,75.48
2019-05-29T11:37:36.176Z,75.27
2019-05-29T11:38:36.187Z,75.78
2019-05-29T11:39:36.144Z,75.48
2019-05-29T11:40:36.272Z,74.63
2019-05-29T11:41:36.126Z,74.53
2019-05-29T11:42:36.109Z,73.82
2019-05-29T11:43:36.140Z,74.46
2019-05-29T11:44:36.132Z,74.16
2019-05-29T11:45:36.155Z,74.87
2019-05-29T11:46:36.066Z,74.77
2019-05-29T11:47:36.055Z,73.35
2019-05-29T11:48:36.045Z,74.77
2019-05-29T11:49:36.041Z,74.97
2019-05-29T11:50:36.059Z,73.66
2019-05-29T11:51:36.015Z,74.46
2019-05-29T11:52:42.905Z,73.86
2019-05-29T11:53:36.995Z,74.73
2019-05-29T11:54:47.991Z,73.89
2019-05-29T11:55:36.196Z,73.05
2019-05-29T11:56:35.977Z,72.54
2019-05-29T11:57:39.477Z,71.60
2019-05-29T11:58:35.946Z,72.64
2019-05-29T11:59:35.931Z,71.64
2019-05-29T12:00:35.922Z,72.58
2019-05-29T12:01:49.797Z,72.44
2019-05-29T12:02:36.898Z,71.33
2019-05-29T12:03:35.883Z,71.03
2019-05-29T12:04:35.875Z,70.26
2019-05-29T12:05:35.880Z,71.70
2019-05-29T12:06:35.954Z,71.23
2019-05-29T12:07:35.843Z,72.14
2019-05-29T12:08:35.832Z,73.15
2019-05-29T12:09:35.987Z,72.34
2019-05-29T12:10:35.834Z,73.15
2019-05-29T12:11:35.800Z,72.64
2019-05-29T12:12:35.787Z,72.85
2019-05-29T12:13:35.778Z,72.24
2019-05-29T12:14:57.647Z,72.31
2019-05-29T12:15:36.761Z,72.17
2019-05-29T12:16:35.756Z,71.33
2019-05-29T12:17:35.869Z,73.25
2019-05-29T12:18:35.726Z,72.71
2019-05-29T12:19:35.709Z,72.48
2019-05-29T12:20:35.703Z,71.57
2019-05-29T12:21:35.720Z,70.53
2019-05-29T12:22:35.711Z,70.32
2019-05-29T12:23:35.666Z,70.26
2019-05-29T12:24:35.675Z,70.36
2019-05-29T12:25:46.161Z,70.26
2019-05-29T12:26:35.681Z,70.32
2019-05-29T12:27:35.849Z,72.48
2019-05-29T12:28:35.682Z,71.67
2019-05-29T12:29:35.608Z,71.37
2019-05-29T12:30:35.665Z,70.36
2019-05-29T12:31:35.586Z,70.56
2019-05-29T12:32:35.580Z,71.10
2019-05-29T12:33:35.569Z,71.60
2019-05-29T12:34:35.548Z,71.13
2019-05-29T12:35:35.537Z,71.73
2019-05-29T12:36:35.530Z,70.89
2019-05-29T12:37:35.533Z,72.41
2019-05-29T12:38:35.568Z,72.17
2019-05-29T12:39:35.500Z,72.28
2019-05-29T12:40:35.486Z,70.96
2019-05-29T12:41:35.613Z,72.08
2019-05-29T12:42:35.473Z,71.37
2019-05-29T12:43:35.470Z,72.58
2019-05-29T12:44:35.448Z,72.58
2019-05-29T12:45:35.439Z,71.23
2019-05-29T12:46:35.424Z,71.33
2019-05-29T12:47:35.414Z,71.23
2019-05-29T12:48:35.413Z,70.62
2019-05-29T12:49:35.392Z,70.62
2019-05-29T12:50:35.384Z,70.12
2019-05-29T12:51:35.391Z,71.13
2019-05-29T12:52:35.362Z,71.23
2019-05-29T12:53:35.359Z,70.83
2019-05-29T12:54:35.334Z,70.36
2019-05-29T12:55:35.331Z,70.73
2019-05-29T12:56:46.033Z,70.12
2019-05-29T12:57:35.349Z,70.62
2019-05-29T12:58:35.427Z,70.42
2019-05-29T12:59:35.284Z,70.22
2019-05-29T13:00:35.283Z,69.82
2019-05-29T13:01:35.271Z,70.93
2019-05-29T13:02:35.249Z,70.22
2019-05-29T13:03:35.262Z,69.21
2019-05-29T13:05:05.127Z,70.73
2019-05-29T13:05:36.215Z,69.42
2019-05-29T13:06:35.219Z,69.85
2019-05-29T13:07:35.195Z,69.71
2019-05-29T13:08:35.187Z,69.42
2019-05-29T13:09:35.191Z,69.31
2019-05-29T13:10:35.163Z,69.42
2019-05-29T13:11:35.161Z,68.40
2019-05-29T13:12:35.147Z,69.21
2019-05-29T13:13:35.129Z,69.11
2019-05-29T13:14:35.162Z,69.31
2019-05-29T13:15:35.111Z,67.90
2019-05-29T13:16:35.097Z,69.45
2019-05-29T13:17:35.091Z,69.01
2019-05-29T13:18:35.076Z,69.51
2019-05-29T13:19:35.072Z,70.53
2019-05-29T13:20:35.066Z,69.28
2019-05-29T13:21:35.045Z,69.55
2019-05-29T13:22:35.040Z,68.01
2019-05-29T13:23:44.645Z,68.24
2019-05-29T13:24:36.017Z,68.07
2019-05-29T13:25:35.050Z,66.46
2019-05-29T13:26:34.999Z,65.75
2019-05-29T13:27:45.102Z,66.96
2019-05-29T13:28:34.984Z,67.67
2019-05-29T13:29:35.042Z,66.49
2019-05-29T13:30:34.962Z,67.02
2019-05-29T13:31:34.969Z,67.40
2019-05-29T13:32:34.937Z,66.16
2019-05-29T13:33:34.925Z,65.75
2019-05-29T13:34:34.919Z,66.69
2019-05-29T13:35:34.902Z,66.69
2019-05-29T13:36:34.903Z,66.66
2019-05-29T13:37:34.875Z,66.13
2019-05-29T13:38:34.897Z,65.32
2019-05-29T13:39:34.849Z,65.12
2019-05-29T13:40:34.849Z,65.12
2019-05-29T13:41:34.829Z,64.34
2019-05-29T13:42:34.859Z,64.75
2019-05-29T13:43:34.809Z,64.54
2019-05-29T13:44:34.799Z,65.25
2019-05-29T13:45:34.794Z,65.58
2019-05-29T13:46:34.791Z,66.08
2019-05-29T13:47:34.768Z,66.29
2019-05-29T13:48:34.786Z,65.85
2019-05-29T13:49:34.746Z,64.75
2019-05-29T13:50:34.730Z,66.16
2019-05-29T13:51:34.726Z,65.22
2019-05-29T13:52:34.724Z,65.15
2019-05-29T13:53:34.700Z,66.76
2019-05-29T13:54:34.690Z,64.69
2019-05-29T13:55:34.676Z,62.94
2019-05-29T13:56:34.674Z,62.94
2019-05-29T13:57:34.672Z,63.11